sensor_id;sensor_type;location;lat;lon;timestamp;P1;P2;P0
43479;PMS5003;29067;35.492;-97.520;2023-02-15T00:01:49;4;2;
43479;PMS5003;29067;35.492;-97.520;2023-02-15T00:04:23;4;0;
43479;PMS5003;29067;35.492;-97.520;2023-02-15T00:06:52;2;1;
43479;PMS5003;29067;35.492;-97.520;2023-02-15T00:09:20;4;2;
43479;PMS5003;29067;35.492;-97.520;2023-02-15T00:11:48;5;4;
43479;PMS5003;29067;35.492;-97.520;2023-02-15T00:14:16;2;2;
43479;PMS5003;29067;35.492;-97.520;2023-02-15T00:16:47;9;3;
43479;PMS5003;29067;35.492;-97.520;2023-02-15T00:19:17;5;4;
43479;PMS5003;29067;35.492;-97.520;2023-02-15T00:21:47;4;3;
43479;PMS5003;29067;35.492;-97.520;2023-02-15T00:24:16;4;3;
43479;PMS5003;29067;35.492;-97.520;2023-02-15T00:26:45;8;5;
43479;PMS5003;29067;35.492;-97.520;2023-02-15T00:29:15;10;3;
43479;PMS5003;29067;35.492;-97.520;2023-02-15T00:31:45;6;4;
43479;PMS5003;29067;35.492;-97.520;2023-02-15T00:34:14;11;4;
43479;PMS5003;29067;35.492;-97.520;2023-02-15T00:36:43;9;6;
43479;PMS5003;29067;35.492;-97.520;2023-02-15T00:39:12;3;1;
43479;PMS5003;29067;35.492;-97.520;2023-02-15T00:41:40;11;5;
43479;PMS5003;29067;35.492;-97.520;2023-02-15T00:44:09;16;7;
43479;PMS5003;29067;35.492;-97.520;2023-02-15T00:46:38;10;4;
43479;PMS5003;29067;35.492;-97.520;2023-02-15T00:49:06;9;3;
43479;PMS5003;29067;35.492;-97.520;2023-02-15T00:51:34;16;7;
43479;PMS5003;29067;35.492;-97.520;2023-02-15T00:54:08;5;3;
43479;PMS5003;29067;35.492;-97.520;2023-02-15T00:56:42;5;4;
43479;PMS5003;29067;35.492;-97.520;2023-02-15T00:59:16;8;4;
43479;PMS5003;29067;35.492;-97.520;2023-02-15T01:01:44;8;6;
43479;PMS5003;29067;35.492;-97.520;2023-02-15T01:04:12;11;6;
43479;PMS5003;29067;35.492;-97.520;2023-02-15T01:06:50;12;5;
43479;PMS5003;29067;35.492;-97.520;2023-02-15T01:09:24;10;5;
43479;PMS5003;29067;35.492;-97.520;2023-02-15T01:11:51;8;2;
43479;PMS5003;29067;35.492;-97.520;2023-02-15T01:14:19;9;6;
43479;PMS5003;29067;35.492;-97.520;2023-02-15T01:16:47;8;4;
43479;PMS5003;29067;35.492;-97.520;2023-02-15T01:19:15;9;5;
43479;PMS5003;29067;35.492;-97.520;2023-02-15T01:21:43;8;5;
43479;PMS5003;29067;35.492;-97.520;2023-02-15T01:24:11;9;3;
43479;PMS5003;29067;35.492;-97.520;2023-02-15T01:26:40;4;4;
43479;PMS5003;29067;35.492;-97.520;2023-02-15T01:29:08;10;5;
43479;PMS5003;29067;35.492;-97.520;2023-02-15T01:31:36;6;3;
43479;PMS5003;29067;35.492;-97.520;2023-02-15T01:34:04;6;5;
43479;PMS5003;29067;35.492;-97.520;2023-02-15T01:36:34;10;5;
43479;PMS5003;29067;35.492;-97.520;2023-02-15T01:39:02;6;3;
43479;PMS5003;29067;35.492;-97.520;2023-02-15T01:41:31;6;4;
43479;PMS5003;29067;35.492;-97.520;2023-02-15T01:44:00;7;4;
43479;PMS5003;29067;35.492;-97.520;2023-02-15T01:46:33;10;4;
43479;PMS5003;29067;35.492;-97.520;2023-02-15T01:49:07;5;3;
43479;PMS5003;29067;35.492;-97.520;2023-02-15T01:51:39;5;3;
43479;PMS5003;29067;35.492;-97.520;2023-02-15T01:54:11;6;4;
43479;PMS5003;29067;35.492;-97.520;2023-02-15T01:56:45;7;4;
43479;PMS5003;29067;35.492;-97.520;2023-02-15T01:59:16;12;6;
43479;PMS5003;29067;35.492;-97.520;2023-02-15T02:01:48;8;5;
43479;PMS5003;29067;35.492;-97.520;2023-02-15T02:04:21;19;4;
43479;PMS5003;29067;35.492;-97.520;2023-02-15T02:06:55;6;4;
43479;PMS5003;29067;35.492;-97.520;2023-02-15T02:09:26;3;3;
43479;PMS5003;29067;35.492;-97.520;2023-02-15T02:11:54;8;4;
43479;PMS5003;29067;35.492;-97.520;2023-02-15T02:14:22;4;2;
43479;PMS5003;29067;35.492;-97.520;2023-02-15T02:16:53;6;3;
43479;PMS5003;29067;35.492;-97.520;2023-02-15T02:19:37;5;3;
43479;PMS5003;29067;35.492;-97.520;2023-02-15T02:23:00;7;5;
43479;PMS5003;29067;35.492;-97.520;2023-02-15T02:25:46;6;4;
43479;PMS5003;29067;35.492;-97.520;2023-02-15T02:28:03;6;3;
43479;PMS5003;29067;35.492;-97.520;2023-02-15T02:30:49;6;3;
43479;PMS5003;29067;35.492;-97.520;2023-02-15T02:33:37;6;4;
43479;PMS5003;29067;35.492;-97.520;2023-02-15T02:36:19;6;5;
43479;PMS5003;29067;35.492;-97.520;2023-02-15T02:39:00;14;5;
43479;PMS5003;29067;35.492;-97.520;2023-02-15T02:41:44;6;4;
43479;PMS5003;29067;35.492;-97.520;2023-02-15T02:44:22;5;3;
43479;PMS5003;29067;35.492;-97.520;2023-02-15T02:46:54;15;6;
43479;PMS5003;29067;35.492;-97.520;2023-02-15T02:49:30;4;3;
43479;PMS5003;29067;35.492;-97.520;2023-02-15T02:52:00;6;2;
43479;PMS5003;29067;35.492;-97.520;2023-02-15T02:54:29;10;5;
43479;PMS5003;29067;35.492;-97.520;2023-02-15T02:57:00;7;3;
43479;PMS5003;29067;35.492;-97.520;2023-02-15T02:59:32;7;2;
43479;PMS5003;29067;35.492;-97.520;2023-02-15T03:02:05;7;3;
43479;PMS5003;29067;35.492;-97.520;2023-02-15T03:04:39;5;2;
43479;PMS5003;29067;35.492;-97.520;2023-02-15T03:07:13;13;6;
43479;PMS5003;29067;35.492;-97.520;2023-02-15T03:09:44;6;5;
43479;PMS5003;29067;35.492;-97.520;2023-02-15T03:12:17;3;2;
43479;PMS5003;29067;35.492;-97.520;2023-02-15T03:14:53;5;4;
43479;PMS5003;29067;35.492;-97.520;2023-02-15T03:17:32;8;6;
43479;PMS5003;29067;35.492;-97.520;2023-02-15T03:20:10;6;3;
43479;PMS5003;29067;35.492;-97.520;2023-02-15T03:22:44;6;3;
43479;PMS5003;29067;35.492;-97.520;2023-02-15T03:25:18;8;4;
43479;PMS5003;29067;35.492;-97.520;2023-02-15T03:27:49;6;4;
43479;PMS5003;29067;35.492;-97.520;2023-02-15T03:30:28;12;8;
43479;PMS5003;29067;35.492;-97.520;2023-02-15T03:32:59;12;8;
43479;PMS5003;29067;35.492;-97.520;2023-02-15T03:35:33;13;11;
43479;PMS5003;29067;35.492;-97.520;2023-02-15T03:38:08;14;8;
43479;PMS5003;29067;35.492;-97.520;2023-02-15T03:40:39;17;5;
43479;PMS5003;29067;35.492;-97.520;2023-02-15T03:43:12;14;8;
43479;PMS5003;29067;35.492;-97.520;2023-02-15T03:45:47;14;11;
43479;PMS5003;29067;35.492;-97.520;2023-02-15T03:48:17;9;4;
43479;PMS5003;29067;35.492;-97.520;2023-02-15T03:50:47;15;13;
43479;PMS5003;29067;35.492;-97.520;2023-02-15T03:53:16;15;14;
43479;PMS5003;29067;35.492;-97.520;2023-02-15T03:55:47;16;8;
43479;PMS5003;29067;35.492;-97.520;2023-02-15T03:58:16;22;21;
43479;PMS5003;29067;35.492;-97.520;2023-02-15T04:00:46;25;17;
43479;PMS5003;29067;35.492;-97.520;2023-02-15T04:03:22;6;3;
43479;PMS5003;29067;35.492;-97.520;2023-02-15T04:05:57;16;11;
43479;PMS5003;29067;35.492;-97.520;2023-02-15T04:08:27;16;6;
43479;PMS5003;29067;35.492;-97.520;2023-02-15T04:10:55;8;6;
43479;PMS5003;29067;35.492;-97.520;2023-02-15T04:13:24;12;5;
43479;PMS5003;29067;35.492;-97.520;2023-02-15T04:15:58;14;5;
43479;PMS5003;29067;35.492;-97.520;2023-02-15T04:18:26;11;5;
43479;PMS5003;29067;35.492;-97.520;2023-02-15T04:20:54;8;5;
43479;PMS5003;29067;35.492;-97.520;2023-02-15T04:23:22;5;3;
43479;PMS5003;29067;35.492;-97.520;2023-02-15T04:25:51;7;6;
43479;PMS5003;29067;35.492;-97.520;2023-02-15T04:28:19;10;6;
43479;PMS5003;29067;35.492;-97.520;2023-02-15T04:30:47;13;7;
43479;PMS5003;29067;35.492;-97.520;2023-02-15T04:33:15;11;6;
43479;PMS5003;29067;35.492;-97.520;2023-02-15T04:35:44;5;4;
43479;PMS5003;29067;35.492;-97.520;2023-02-15T04:38:12;14;5;
43479;PMS5003;29067;35.492;-97.520;2023-02-15T04:40:41;12;7;
43479;PMS5003;29067;35.492;-97.520;2023-02-15T04:43:08;8;5;
43479;PMS5003;29067;35.492;-97.520;2023-02-15T04:45:36;14;8;
43479;PMS5003;29067;35.492;-97.520;2023-02-15T04:48:05;12;6;
43479;PMS5003;29067;35.492;-97.520;2023-02-15T04:50:33;11;5;
43479;PMS5003;29067;35.492;-97.520;2023-02-15T04:53:01;12;6;
43479;PMS5003;29067;35.492;-97.520;2023-02-15T04:55:29;8;7;
43479;PMS5003;29067;35.492;-97.520;2023-02-15T04:57:57;14;6;
43479;PMS5003;29067;35.492;-97.520;2023-02-15T05:00:25;14;8;
43479;PMS5003;29067;35.492;-97.520;2023-02-15T05:02:53;7;5;
43479;PMS5003;29067;35.492;-97.520;2023-02-15T05:05:21;10;5;
43479;PMS5003;29067;35.492;-97.520;2023-02-15T05:07:49;10;6;
43479;PMS5003;29067;35.492;-97.520;2023-02-15T05:10:18;8;7;
43479;PMS5003;29067;35.492;-97.520;2023-02-15T05:12:46;9;4;
43479;PMS5003;29067;35.492;-97.520;2023-02-15T05:15:14;6;5;
43479;PMS5003;29067;35.492;-97.520;2023-02-15T05:17:42;15;6;
43479;PMS5003;29067;35.492;-97.520;2023-02-15T05:20:11;10;6;
43479;PMS5003;29067;35.492;-97.520;2023-02-15T05:22:39;11;4;
43479;PMS5003;29067;35.492;-97.520;2023-02-15T05:25:08;19;6;
43479;PMS5003;29067;35.492;-97.520;2023-02-15T05:27:36;7;5;
43479;PMS5003;29067;35.492;-97.520;2023-02-15T05:30:05;18;9;
43479;PMS5003;29067;35.492;-97.520;2023-02-15T05:32:34;10;5;
43479;PMS5003;29067;35.492;-97.520;2023-02-15T05:35:03;17;10;
43479;PMS5003;29067;35.492;-97.520;2023-02-15T05:37:31;6;5;
43479;PMS5003;29067;35.492;-97.520;2023-02-15T05:39:59;10;7;
43479;PMS5003;29067;35.492;-97.520;2023-02-15T05:42:26;12;6;
43479;PMS5003;29067;35.492;-97.520;2023-02-15T05:44:54;9;6;
43479;PMS5003;29067;35.492;-97.520;2023-02-15T05:47:23;14;7;
43479;PMS5003;29067;35.492;-97.520;2023-02-15T05:49:56;12;5;
43479;PMS5003;29067;35.492;-97.520;2023-02-15T05:52:24;10;5;
43479;PMS5003;29067;35.492;-97.520;2023-02-15T05:54:52;12;5;
43479;PMS5003;29067;35.492;-97.520;2023-02-15T05:57:20;11;5;
43479;PMS5003;29067;35.492;-97.520;2023-02-15T05:59:48;9;3;
43479;PMS5003;29067;35.492;-97.520;2023-02-15T06:02:16;6;2;
43479;PMS5003;29067;35.492;-97.520;2023-02-15T06:04:45;12;6;
43479;PMS5003;29067;35.492;-97.520;2023-02-15T06:07:13;14;10;
43479;PMS5003;29067;35.492;-97.520;2023-02-15T06:09:41;17;7;
43479;PMS5003;29067;35.492;-97.520;2023-02-15T06:12:09;15;9;
43479;PMS5003;29067;35.492;-97.520;2023-02-15T06:14:37;23;18;
43479;PMS5003;29067;35.492;-97.520;2023-02-15T06:17:06;19;13;
43479;PMS5003;29067;35.492;-97.520;2023-02-15T06:19:34;12;11;
43479;PMS5003;29067;35.492;-97.520;2023-02-15T06:22:02;13;11;
43479;PMS5003;29067;35.492;-97.520;2023-02-15T06:24:31;13;11;
43479;PMS5003;29067;35.492;-97.520;2023-02-15T06:27:00;20;12;
43479;PMS5003;29067;35.492;-97.520;2023-02-15T06:29:28;24;12;
43479;PMS5003;29067;35.492;-97.520;2023-02-15T06:32:02;18;11;
43479;PMS5003;29067;35.492;-97.520;2023-02-15T06:34:31;19;11;
43479;PMS5003;29067;35.492;-97.520;2023-02-15T06:36:59;21;13;
43479;PMS5003;29067;35.492;-97.520;2023-02-15T06:39:27;10;9;
43479;PMS5003;29067;35.492;-97.520;2023-02-15T06:41:57;11;9;
43479;PMS5003;29067;35.492;-97.520;2023-02-15T06:44:30;18;13;
43479;PMS5003;29067;35.492;-97.520;2023-02-15T06:46:58;17;11;
43479;PMS5003;29067;35.492;-97.520;2023-02-15T06:49:26;13;12;
43479;PMS5003;29067;35.492;-97.520;2023-02-15T06:51:55;22;16;
43479;PMS5003;29067;35.492;-97.520;2023-02-15T06:54:23;18;12;
43479;PMS5003;29067;35.492;-97.520;2023-02-15T06:56:51;13;10;
43479;PMS5003;29067;35.492;-97.520;2023-02-15T06:59:19;11;8;
43479;PMS5003;29067;35.492;-97.520;2023-02-15T07:01:47;14;11;
43479;PMS5003;29067;35.492;-97.520;2023-02-15T07:04:15;17;10;
43479;PMS5003;29067;35.492;-97.520;2023-02-15T07:06:43;17;9;
43479;PMS5003;29067;35.492;-97.520;2023-02-15T07:09:11;10;8;
43479;PMS5003;29067;35.492;-97.520;2023-02-15T07:11:39;17;9;
43479;PMS5003;29067;35.492;-97.520;2023-02-15T07:14:07;17;9;
43479;PMS5003;29067;35.492;-97.520;2023-02-15T07:16:36;8;6;
43479;PMS5003;29067;35.492;-97.520;2023-02-15T07:19:04;14;9;
43479;PMS5003;29067;35.492;-97.520;2023-02-15T07:21:32;11;9;
43479;PMS5003;29067;35.492;-97.520;2023-02-15T07:24:00;11;9;
43479;PMS5003;29067;35.492;-97.520;2023-02-15T07:26:29;20;12;
43479;PMS5003;29067;35.492;-97.520;2023-02-15T07:28:58;13;11;
43479;PMS5003;29067;35.492;-97.520;2023-02-15T07:31:34;16;12;
43479;PMS5003;29067;35.492;-97.520;2023-02-15T07:34:07;10;9;
43479;PMS5003;29067;35.492;-97.520;2023-02-15T07:36:37;10;8;
43479;PMS5003;29067;35.492;-97.520;2023-02-15T07:39:06;16;12;
43479;PMS5003;29067;35.492;-97.520;2023-02-15T07:41:34;16;10;
43479;PMS5003;29067;35.492;-97.520;2023-02-15T07:44:03;12;8;
43479;PMS5003;29067;35.492;-97.520;2023-02-15T07:46:31;14;10;
43479;PMS5003;29067;35.492;-97.520;2023-02-15T07:48:59;16;10;
43479;PMS5003;29067;35.492;-97.520;2023-02-15T07:51:27;16;9;
43479;PMS5003;29067;35.492;-97.520;2023-02-15T07:53:55;18;13;
43479;PMS5003;29067;35.492;-97.520;2023-02-15T07:56:23;18;14;
43479;PMS5003;29067;35.492;-97.520;2023-02-15T07:58:50;25;24;
43479;PMS5003;29067;35.492;-97.520;2023-02-15T08:01:20;22;10;
43479;PMS5003;29067;35.492;-97.520;2023-02-15T08:03:49;10;10;
43479;PMS5003;29067;35.492;-97.520;2023-02-15T08:06:18;15;10;
43479;PMS5003;29067;35.492;-97.520;2023-02-15T08:08:46;16;10;
43479;PMS5003;29067;35.492;-97.520;2023-02-15T08:11:15;10;10;
43479;PMS5003;29067;35.492;-97.520;2023-02-15T08:13:45;10;9;
43479;PMS5003;29067;35.492;-97.520;2023-02-15T08:16:14;20;13;
43479;PMS5003;29067;35.492;-97.520;2023-02-15T08:18:42;45;39;
43479;PMS5003;29067;35.492;-97.520;2023-02-15T08:21:10;23;7;
43479;PMS5003;29067;35.492;-97.520;2023-02-15T08:23:38;11;5;
43479;PMS5003;29067;35.492;-97.520;2023-02-15T08:26:06;16;16;
43479;PMS5003;29067;35.492;-97.520;2023-02-15T08:28:35;28;22;
43479;PMS5003;29067;35.492;-97.520;2023-02-15T08:31:04;9;5;
43479;PMS5003;29067;35.492;-97.520;2023-02-15T08:33:33;41;39;
43479;PMS5003;29067;35.492;-97.520;2023-02-15T08:36:03;20;10;
43479;PMS5003;29067;35.492;-97.520;2023-02-15T08:38:32;16;11;
43479;PMS5003;29067;35.492;-97.520;2023-02-15T08:41:08;22;9;
43479;PMS5003;29067;35.492;-97.520;2023-02-15T08:43:40;33;26;
43479;PMS5003;29067;35.492;-97.520;2023-02-15T08:46:11;20;16;
43479;PMS5003;29067;35.492;-97.520;2023-02-15T08:48:40;28;25;
43479;PMS5003;29067;35.492;-97.520;2023-02-15T08:51:09;47;41;
43479;PMS5003;29067;35.492;-97.520;2023-02-15T08:53:38;28;21;
43479;PMS5003;29067;35.492;-97.520;2023-02-15T08:56:07;36;34;
43479;PMS5003;29067;35.492;-97.520;2023-02-15T08:58:36;59;48;
43479;PMS5003;29067;35.492;-97.520;2023-02-15T09:01:10;29;28;
43479;PMS5003;29067;35.492;-97.520;2023-02-15T09:03:40;73;70;
43479;PMS5003;29067;35.492;-97.520;2023-02-15T09:06:16;100;95;
43479;PMS5003;29067;35.492;-97.520;2023-02-15T09:08:52;89;86;
43479;PMS5003;29067;35.492;-97.520;2023-02-15T09:11:23;57;55;
43479;PMS5003;29067;35.492;-97.520;2023-02-15T09:13:52;46;38;
43479;PMS5003;29067;35.492;-97.520;2023-02-15T09:16:22;37;33;
43479;PMS5003;29067;35.492;-97.520;2023-02-15T09:18:50;23;13;
43479;PMS5003;29067;35.492;-97.520;2023-02-15T09:21:20;59;58;
43479;PMS5003;29067;35.492;-97.520;2023-02-15T09:23:49;44;39;
43479;PMS5003;29067;35.492;-97.520;2023-02-15T09:26:19;20;10;
43479;PMS5003;29067;35.492;-97.520;2023-02-15T09:28:50;66;59;
43479;PMS5003;29067;35.492;-97.520;2023-02-15T09:31:20;17;11;
43479;PMS5003;29067;35.492;-97.520;2023-02-15T09:33:50;50;50;
43479;PMS5003;29067;35.492;-97.520;2023-02-15T09:36:18;27;22;
43479;PMS5003;29067;35.492;-97.520;2023-02-15T09:38:47;10;5;
43479;PMS5003;29067;35.492;-97.520;2023-02-15T09:41:27;17;13;
43479;PMS5003;29067;35.492;-97.520;2023-02-15T09:44:14;28;23;
43479;PMS5003;29067;35.492;-97.520;2023-02-15T09:47:04;34;28;
43479;PMS5003;29067;35.492;-97.520;2023-02-15T09:49:54;21;14;
43479;PMS5003;29067;35.492;-97.520;2023-02-15T09:52:33;27;23;
43479;PMS5003;29067;35.492;-97.520;2023-02-15T09:55:19;38;26;
43479;PMS5003;29067;35.492;-97.520;2023-02-15T09:58:01;40;36;
43479;PMS5003;29067;35.492;-97.520;2023-02-15T10:00:40;67;65;
43479;PMS5003;29067;35.492;-97.520;2023-02-15T10:03:19;48;45;
43479;PMS5003;29067;35.492;-97.520;2023-02-15T10:06:04;35;31;
43479;PMS5003;29067;35.492;-97.520;2023-02-15T10:08:50;19;9;
43479;PMS5003;29067;35.492;-97.520;2023-02-15T10:11:37;45;39;
43479;PMS5003;29067;35.492;-97.520;2023-02-15T10:14:23;30;24;
43479;PMS5003;29067;35.492;-97.520;2023-02-15T10:17:23;34;28;
43479;PMS5003;29067;35.492;-97.520;2023-02-15T10:20:13;26;20;
43479;PMS5003;29067;35.492;-97.520;2023-02-15T10:22:55;30;22;
43479;PMS5003;29067;35.492;-97.520;2023-02-15T10:25:37;43;34;
43479;PMS5003;29067;35.492;-97.520;2023-02-15T10:28:15;35;27;
43479;PMS5003;29067;35.492;-97.520;2023-02-15T10:30:46;28;22;
43479;PMS5003;29067;35.492;-97.520;2023-02-15T10:33:21;16;10;
43479;PMS5003;29067;35.492;-97.520;2023-02-15T10:36:03;26;15;
43479;PMS5003;29067;35.492;-97.520;2023-02-15T10:38:44;33;22;
43479;PMS5003;29067;35.492;-97.520;2023-02-15T10:41:24;32;28;
43479;PMS5003;29067;35.492;-97.520;2023-02-15T10:44:07;46;39;
43479;PMS5003;29067;35.492;-97.520;2023-02-15T10:46:52;37;28;
43479;PMS5003;29067;35.492;-97.520;2023-02-15T10:49:36;39;33;
43479;PMS5003;29067;35.492;-97.520;2023-02-15T10:52:18;48;44;
43479;PMS5003;29067;35.492;-97.520;2023-02-15T10:54:57;33;27;
43479;PMS5003;29067;35.492;-97.520;2023-02-15T10:57:34;25;18;
43479;PMS5003;29067;35.492;-97.520;2023-02-15T11:00:13;24;20;
43479;PMS5003;29067;35.492;-97.520;2023-02-15T11:02:57;27;17;
43479;PMS5003;29067;35.492;-97.520;2023-02-15T11:05:36;34;25;
43479;PMS5003;29067;35.492;-97.520;2023-02-15T11:08:11;39;31;
43479;PMS5003;29067;35.492;-97.520;2023-02-15T11:10:42;28;22;
43479;PMS5003;29067;35.492;-97.520;2023-02-15T11:13:16;192;185;
43479;PMS5003;29067;35.492;-97.520;2023-02-15T11:15:47;272;269;
43479;PMS5003;29067;35.492;-97.520;2023-02-15T11:18:23;231;229;
43479;PMS5003;29067;35.492;-97.520;2023-02-15T11:20:54;246;244;
43479;PMS5003;29067;35.492;-97.520;2023-02-15T11:23:26;164;157;
43479;PMS5003;29067;35.492;-97.520;2023-02-15T11:25:56;163;158;
43479;PMS5003;29067;35.492;-97.520;2023-02-15T11:28:29;165;161;
43479;PMS5003;29067;35.492;-97.520;2023-02-15T11:31:02;153;147;
43479;PMS5003;29067;35.492;-97.520;2023-02-15T11:33:49;33;29;
43479;PMS5003;29067;35.492;-97.520;2023-02-15T11:36:22;4;3;
43479;PMS5003;29067;35.492;-97.520;2023-02-15T11:38:56;7;3;
43479;PMS5003;29067;35.492;-97.520;2023-02-15T11:41:29;3;3;
43479;PMS5003;29067;35.492;-97.520;2023-02-15T11:44:04;3;2;
43479;PMS5003;29067;35.492;-97.520;2023-02-15T11:46:39;4;2;
43479;PMS5003;29067;35.492;-97.520;2023-02-15T11:49:10;7;2;
43479;PMS5003;29067;35.492;-97.520;2023-02-15T11:51:50;12;6;
43479;PMS5003;29067;35.492;-97.520;2023-02-15T11:54:21;10;3;
43479;PMS5003;29067;35.492;-97.520;2023-02-15T11:56:53;3;2;
43479;PMS5003;29067;35.492;-97.520;2023-02-15T11:59:24;2;2;
43479;PMS5003;29067;35.492;-97.520;2023-02-15T12:03:07;3;2;
43479;PMS5003;29067;35.492;-97.520;2023-02-15T12:05:42;2;2;
43479;PMS5003;29067;35.492;-97.520;2023-02-15T12:08:15;4;3;
43479;PMS5003;29067;35.492;-97.520;2023-02-15T12:10:51;2;1;
43479;PMS5003;29067;35.492;-97.520;2023-02-15T12:13:27;3;2;
43479;PMS5003;29067;35.492;-97.520;2023-02-15T12:15:56;2;1;
43479;PMS5003;29067;35.492;-97.520;2023-02-15T12:18:34;2;1;
43479;PMS5003;29067;35.492;-97.520;2023-02-15T12:21:06;1;1;
43479;PMS5003;29067;35.492;-97.520;2023-02-15T12:23:41;2;1;
43479;PMS5003;29067;35.492;-97.520;2023-02-15T12:26:14;3;3;
43479;PMS5003;29067;35.492;-97.520;2023-02-15T12:28:50;3;2;
43479;PMS5003;29067;35.492;-97.520;2023-02-15T12:31:21;2;1;
43479;PMS5003;29067;35.492;-97.520;2023-02-15T12:33:54;1;1;
43479;PMS5003;29067;35.492;-97.520;2023-02-15T12:36:25;3;2;
43479;PMS5003;29067;35.492;-97.520;2023-02-15T12:39:04;1;1;
43479;PMS5003;29067;35.492;-97.520;2023-02-15T12:41:44;3;2;
43479;PMS5003;29067;35.492;-97.520;2023-02-15T12:44:24;6;6;
43479;PMS5003;29067;35.492;-97.520;2023-02-15T12:46:58;3;2;
43479;PMS5003;29067;35.492;-97.520;2023-02-15T12:49:29;4;2;
43479;PMS5003;29067;35.492;-97.520;2023-02-15T12:51:59;4;4;
43479;PMS5003;29067;35.492;-97.520;2023-02-15T12:54:30;3;3;
43479;PMS5003;29067;35.492;-97.520;2023-02-15T12:57:13;2;2;
43479;PMS5003;29067;35.492;-97.520;2023-02-15T12:59:50;4;4;
43479;PMS5003;29067;35.492;-97.520;2023-02-15T13:02:22;3;2;
43479;PMS5003;29067;35.492;-97.520;2023-02-15T13:04:53;5;3;
43479;PMS5003;29067;35.492;-97.520;2023-02-15T13:07:25;5;5;
43479;PMS5003;29067;35.492;-97.520;2023-02-15T13:10:00;3;3;
43479;PMS5003;29067;35.492;-97.520;2023-02-15T13:12:29;3;3;
43479;PMS5003;29067;35.492;-97.520;2023-02-15T13:14:58;5;3;
43479;PMS5003;29067;35.492;-97.520;2023-02-15T13:17:27;5;3;
43479;PMS5003;29067;35.492;-97.520;2023-02-15T13:19:58;2;2;
43479;PMS5003;29067;35.492;-97.520;2023-02-15T13:22:33;5;2;
43479;PMS5003;29067;35.492;-97.520;2023-02-15T13:25:09;3;2;
43479;PMS5003;29067;35.492;-97.520;2023-02-15T13:27:41;3;2;
43479;PMS5003;29067;35.492;-97.520;2023-02-15T13:30:16;2;2;
43479;PMS5003;29067;35.492;-97.520;2023-02-15T13:32:52;3;3;
43479;PMS5003;29067;35.492;-97.520;2023-02-15T13:35:23;3;3;
43479;PMS5003;29067;35.492;-97.520;2023-02-15T13:38:02;5;3;
43479;PMS5003;29067;35.492;-97.520;2023-02-15T13:40:41;6;3;
43479;PMS5003;29067;35.492;-97.520;2023-02-15T13:43:19;3;3;
43479;PMS5003;29067;35.492;-97.520;2023-02-15T13:45:58;6;5;
43479;PMS5003;29067;35.492;-97.520;2023-02-15T13:48:42;3;3;
43479;PMS5003;29067;35.492;-97.520;2023-02-15T13:51:21;5;5;
43479;PMS5003;29067;35.492;-97.520;2023-02-15T13:53:58;3;3;
43479;PMS5003;29067;35.492;-97.520;2023-02-15T13:56:45;5;5;
43479;PMS5003;29067;35.492;-97.520;2023-02-15T13:59:26;5;5;
43479;PMS5003;29067;35.492;-97.520;2023-02-15T14:02:11;5;5;
43479;PMS5003;29067;35.492;-97.520;2023-02-15T14:05:05;4;4;
43479;PMS5003;29067;35.492;-97.520;2023-02-15T14:07:56;6;4;
43479;PMS5003;29067;35.492;-97.520;2023-02-15T14:10:36;8;6;
43479;PMS5003;29067;35.492;-97.520;2023-02-15T14:13:19;6;6;
43479;PMS5003;29067;35.492;-97.520;2023-02-15T14:16:36;6;6;
43479;PMS5003;29067;35.492;-97.520;2023-02-15T14:19:20;7;7;
43479;PMS5003;29067;35.492;-97.520;2023-02-15T14:21:55;6;4;
43479;PMS5003;29067;35.492;-97.520;2023-02-15T14:24:33;6;4;
43479;PMS5003;29067;35.492;-97.520;2023-02-15T14:27:10;4;4;
43479;PMS5003;29067;35.492;-97.520;2023-02-15T14:29:49;6;6;
43479;PMS5003;29067;35.492;-97.520;2023-02-15T14:32:21;4;4;
43479;PMS5003;29067;35.492;-97.520;2023-02-15T14:34:57;4;4;
43479;PMS5003;29067;35.492;-97.520;2023-02-15T14:37:31;6;6;
43479;PMS5003;29067;35.492;-97.520;2023-02-15T14:40:12;5;5;
43479;PMS5003;29067;35.492;-97.520;2023-02-15T14:42:52;7;7;
43479;PMS5003;29067;35.492;-97.520;2023-02-15T14:45:27;8;7;
43479;PMS5003;29067;35.492;-97.520;2023-02-15T14:48:04;42;42;
43479;PMS5003;29067;35.492;-97.520;2023-02-15T14:50:39;4;4;
43479;PMS5003;29067;35.492;-97.520;2023-02-15T14:53:23;5;5;
43479;PMS5003;29067;35.492;-97.520;2023-02-15T14:56:19;5;4;
43479;PMS5003;29067;35.492;-97.520;2023-02-15T14:58:56;5;5;
43479;PMS5003;29067;35.492;-97.520;2023-02-15T15:01:50;4;4;
43479;PMS5003;29067;35.492;-97.520;2023-02-15T15:04:24;7;7;
43479;PMS5003;29067;35.492;-97.520;2023-02-15T15:07:03;59;58;
43479;PMS5003;29067;35.492;-97.520;2023-02-15T15:09:41;28;25;
43479;PMS5003;29067;35.492;-97.520;2023-02-15T15:12:13;131;131;
43479;PMS5003;29067;35.492;-97.520;2023-02-15T15:15:04;99;99;
43479;PMS5003;29067;35.492;-97.520;2023-02-15T15:18:05;12;7;
43479;PMS5003;29067;35.492;-97.520;2023-02-15T15:20:47;5;5;
43479;PMS5003;29067;35.492;-97.520;2023-02-15T15:23:51;8;8;
43479;PMS5003;29067;35.492;-97.520;2023-02-15T15:26:24;6;6;
43479;PMS5003;29067;35.492;-97.520;2023-02-15T15:28:55;6;6;
43479;PMS5003;29067;35.492;-97.520;2023-02-15T15:31:27;6;6;
43479;PMS5003;29067;35.492;-97.520;2023-02-15T15:35:13;6;5;
43479;PMS5003;29067;35.492;-97.520;2023-02-15T15:37:59;6;6;
43479;PMS5003;29067;35.492;-97.520;2023-02-15T15:40:55;4;4;
43479;PMS5003;29067;35.492;-97.520;2023-02-15T15:45:08;6;5;
43479;PMS5003;29067;35.492;-97.520;2023-02-15T15:47:58;7;7;
43479;PMS5003;29067;35.492;-97.520;2023-02-15T15:50:50;8;6;
43479;PMS5003;29067;35.492;-97.520;2023-02-15T15:53:21;4;4;
43479;PMS5003;29067;35.492;-97.520;2023-02-15T15:55:54;4;4;
43479;PMS5003;29067;35.492;-97.520;2023-02-15T15:58:25;6;6;
43479;PMS5003;29067;35.492;-97.520;2023-02-15T16:00:54;8;8;
43479;PMS5003;29067;35.492;-97.520;2023-02-15T16:03:27;8;6;
43479;PMS5003;29067;35.492;-97.520;2023-02-15T16:05:56;5;5;
43479;PMS5003;29067;35.492;-97.520;2023-02-15T16:08:26;4;4;
43479;PMS5003;29067;35.492;-97.520;2023-02-15T16:10:57;6;4;
43479;PMS5003;29067;35.492;-97.520;2023-02-15T16:13:39;8;6;
43479;PMS5003;29067;35.492;-97.520;2023-02-15T16:16:08;5;4;
43479;PMS5003;29067;35.492;-97.520;2023-02-15T16:18:39;5;5;
43479;PMS5003;29067;35.492;-97.520;2023-02-15T16:21:12;6;5;
43479;PMS5003;29067;35.492;-97.520;2023-02-15T16:23:50;5;5;
43479;PMS5003;29067;35.492;-97.520;2023-02-15T16:26:41;5;5;
43479;PMS5003;29067;35.492;-97.520;2023-02-15T16:29:27;4;4;
43479;PMS5003;29067;35.492;-97.520;2023-02-15T16:31:58;13;13;
43479;PMS5003;29067;35.492;-97.520;2023-02-15T16:34:28;8;6;
43479;PMS5003;29067;35.492;-97.520;2023-02-15T16:37:11;8;8;
43479;PMS5003;29067;35.492;-97.520;2023-02-15T16:39:40;4;4;
43479;PMS5003;29067;35.492;-97.520;2023-02-15T16:42:10;6;6;
43479;PMS5003;29067;35.492;-97.520;2023-02-15T16:44:41;4;3;
43479;PMS5003;29067;35.492;-97.520;2023-02-15T16:47:12;5;4;
43479;PMS5003;29067;35.492;-97.520;2023-02-15T16:49:46;4;4;